sensor_id;sensor_type;location;lat;lon;timestamp;P1;durP1;ratioP1;P2;durP2;ratioP2
6723;SDS011;3399;52.530;13.304;2024-03-02T00:00:36;44.20;;;30.63;;
6723;SDS011;3399;52.530;13.304;2024-03-02T00:03:03;49.17;;;31.60;;
6723;SDS011;3399;52.530;13.304;2024-03-02T00:05:29;44.87;;;30.90;;
6723;SDS011;3399;52.530;13.304;2024-03-02T00:07:55;43.90;;;29.93;;
6723;SDS011;3399;52.530;13.304;2024-03-02T00:10:22;44.27;;;29.97;;
6723;SDS011;3399;52.530;13.304;2024-03-02T00:12:56;44.77;;;28.53;;
6723;SDS011;3399;52.530;13.304;2024-03-02T00:18:08;43.90;;;31.07;;
6723;SDS011;3399;52.530;13.304;2024-03-02T00:20:36;43.00;;;30.80;;
6723;SDS011;3399;52.530;13.304;2024-03-02T00:23:03;45.37;;;32.40;;
6723;SDS011;3399;52.530;13.304;2024-03-02T00:25:36;47.90;;;31.37;;
6723;SDS011;3399;52.530;13.304;2024-03-02T00:28:21;41.70;;;30.60;;
6723;SDS011;3399;52.530;13.304;2024-03-02T00:33:22;49.23;;;32.00;;
6723;SDS011;3399;52.530;13.304;2024-03-02T00:35:49;45.07;;;32.13;;
6723;SDS011;3399;52.530;13.304;2024-03-02T00:38:15;46.80;;;32.97;;
6723;SDS011;3399;52.530;13.304;2024-03-02T00:40:44;47.83;;;31.80;;
6723;SDS011;3399;52.530;13.304;2024-03-02T00:43:25;43.63;;;31.13;;
6723;SDS011;3399;52.530;13.304;2024-03-02T00:46:19;48.90;;;31.10;;
6723;SDS011;3399;52.530;13.304;2024-03-02T00:48:47;46.97;;;32.53;;
6723;SDS011;3399;52.530;13.304;2024-03-02T00:51:21;49.37;;;33.70;;
6723;SDS011;3399;52.530;13.304;2024-03-02T00:53:50;45.63;;;33.50;;
6723;SDS011;3399;52.530;13.304;2024-03-02T00:56:17;44.67;;;32.37;;
6723;SDS011;3399;52.530;13.304;2024-03-02T00:58:43;43.20;;;34.17;;
6723;SDS011;3399;52.530;13.304;2024-03-02T01:01:09;45.60;;;32.57;;
6723;SDS011;3399;52.530;13.304;2024-03-02T01:03:34;48.77;;;32.40;;
6723;SDS011;3399;52.530;13.304;2024-03-02T01:06:00;41.70;;;29.97;;
6723;SDS011;3399;52.530;13.304;2024-03-02T01:08:26;47.30;;;31.63;;
6723;SDS011;3399;52.530;13.304;2024-03-02T01:10:51;45.20;;;31.63;;
6723;SDS011;3399;52.530;13.304;2024-03-02T01:13:17;42.43;;;32.37;;
6723;SDS011;3399;52.530;13.304;2024-03-02T01:15:42;42.53;;;31.80;;
6723;SDS011;3399;52.530;13.304;2024-03-02T01:18:08;44.40;;;32.73;;
6723;SDS011;3399;52.530;13.304;2024-03-02T01:20:34;39.40;;;31.80;;
6723;SDS011;3399;52.530;13.304;2024-03-02T01:22:59;44.27;;;30.97;;
6723;SDS011;3399;52.530;13.304;2024-03-02T01:25:25;43.83;;;33.37;;
6723;SDS011;3399;52.530;13.304;2024-03-02T01:27:50;45.00;;;33.70;;
6723;SDS011;3399;52.530;13.304;2024-03-02T01:30:16;46.73;;;32.53;;
6723;SDS011;3399;52.530;13.304;2024-03-02T01:32:42;40.40;;;30.80;;
6723;SDS011;3399;52.530;13.304;2024-03-02T01:35:08;45.63;;;32.20;;
6723;SDS011;3399;52.530;13.304;2024-03-02T01:37:33;48.20;;;34.17;;
6723;SDS011;3399;52.530;13.304;2024-03-02T01:39:59;44.23;;;31.97;;
6723;SDS011;3399;52.530;13.304;2024-03-02T01:42:25;49.20;;;33.77;;
6723;SDS011;3399;52.530;13.304;2024-03-02T01:44:51;53.47;;;33.87;;
6723;SDS011;3399;52.530;13.304;2024-03-02T01:47:16;49.50;;;35.50;;
6723;SDS011;3399;52.530;13.304;2024-03-02T01:49:42;44.83;;;34.77;;
6723;SDS011;3399;52.530;13.304;2024-03-02T01:52:08;42.77;;;34.57;;
6723;SDS011;3399;52.530;13.304;2024-03-02T01:54:33;43.77;;;32.47;;
6723;SDS011;3399;52.530;13.304;2024-03-02T01:56:59;47.00;;;32.70;;
6723;SDS011;3399;52.530;13.304;2024-03-02T01:59:25;42.67;;;32.87;;
6723;SDS011;3399;52.530;13.304;2024-03-02T02:01:51;51.17;;;36.10;;
6723;SDS011;3399;52.530;13.304;2024-03-02T02:04:17;49.73;;;34.17;;
6723;SDS011;3399;52.530;13.304;2024-03-02T02:06:43;50.73;;;34.83;;
6723;SDS011;3399;52.530;13.304;2024-03-02T02:09:09;49.90;;;34.93;;
6723;SDS011;3399;52.530;13.304;2024-03-02T02:11:35;46.50;;;34.87;;
6723;SDS011;3399;52.530;13.304;2024-03-02T02:14:00;51.10;;;36.37;;
6723;SDS011;3399;52.530;13.304;2024-03-02T02:16:26;48.53;;;33.87;;
6723;SDS011;3399;52.530;13.304;2024-03-02T02:18:51;50.90;;;34.00;;
6723;SDS011;3399;52.530;13.304;2024-03-02T02:21:17;48.53;;;34.73;;
6723;SDS011;3399;52.530;13.304;2024-03-02T02:23:42;45.63;;;34.83;;
6723;SDS011;3399;52.530;13.304;2024-03-02T02:26:11;47.87;;;33.97;;
6723;SDS011;3399;52.530;13.304;2024-03-02T02:28:37;48.57;;;36.53;;
6723;SDS011;3399;52.530;13.304;2024-03-02T02:31:03;51.30;;;34.67;;
6723;SDS011;3399;52.530;13.304;2024-03-02T02:33:28;46.40;;;33.97;;
6723;SDS011;3399;52.530;13.304;2024-03-02T02:35:54;48.43;;;34.67;;
6723;SDS011;3399;52.530;13.304;2024-03-02T02:38:19;48.20;;;34.77;;
6723;SDS011;3399;52.530;13.304;2024-03-02T02:40:45;50.47;;;34.57;;
6723;SDS011;3399;52.530;13.304;2024-03-02T02:43:10;45.93;;;35.33;;
6723;SDS011;3399;52.530;13.304;2024-03-02T02:45:36;54.10;;;35.97;;
6723;SDS011;3399;52.530;13.304;2024-03-02T02:48:02;54.60;;;37.80;;
6723;SDS011;3399;52.530;13.304;2024-03-02T02:50:28;48.37;;;34.73;;
6723;SDS011;3399;52.530;13.304;2024-03-02T02:52:53;44.87;;;35.27;;
6723;SDS011;3399;52.530;13.304;2024-03-02T02:55:19;45.23;;;34.53;;
6723;SDS011;3399;52.530;13.304;2024-03-02T02:57:44;48.13;;;35.90;;
6723;SDS011;3399;52.530;13.304;2024-03-02T03:00:12;47.13;;;35.60;;
6723;SDS011;3399;52.530;13.304;2024-03-02T03:02:40;44.23;;;35.07;;
6723;SDS011;3399;52.530;13.304;2024-03-02T03:05:06;49.13;;;34.80;;
6723;SDS011;3399;52.530;13.304;2024-03-02T03:07:33;48.10;;;34.47;;
6723;SDS011;3399;52.530;13.304;2024-03-02T03:09:59;47.30;;;34.10;;
6723;SDS011;3399;52.530;13.304;2024-03-02T03:12:25;49.47;;;36.07;;
6723;SDS011;3399;52.530;13.304;2024-03-02T03:14:51;48.83;;;36.73;;
6723;SDS011;3399;52.530;13.304;2024-03-02T03:17:16;48.63;;;34.87;;
6723;SDS011;3399;52.530;13.304;2024-03-02T03:19:42;45.23;;;33.83;;
6723;SDS011;3399;52.530;13.304;2024-03-02T03:22:07;49.77;;;34.17;;
6723;SDS011;3399;52.530;13.304;2024-03-02T03:24:33;54.87;;;37.50;;
6723;SDS011;3399;52.530;13.304;2024-03-02T03:26:58;48.87;;;36.23;;
6723;SDS011;3399;52.530;13.304;2024-03-02T03:29:24;52.87;;;36.80;;
6723;SDS011;3399;52.530;13.304;2024-03-02T03:31:49;54.67;;;36.70;;
6723;SDS011;3399;52.530;13.304;2024-03-02T03:34:15;48.90;;;37.03;;
6723;SDS011;3399;52.530;13.304;2024-03-02T03:36:41;45.37;;;34.77;;
6723;SDS011;3399;52.530;13.304;2024-03-02T03:39:07;49.23;;;37.07;;
6723;SDS011;3399;52.530;13.304;2024-03-02T03:41:32;54.87;;;36.97;;
6723;SDS011;3399;52.530;13.304;2024-03-02T03:43:58;48.27;;;35.60;;
6723;SDS011;3399;52.530;13.304;2024-03-02T03:46:23;45.53;;;34.83;;
6723;SDS011;3399;52.530;13.304;2024-03-02T03:48:49;54.87;;;36.27;;
6723;SDS011;3399;52.530;13.304;2024-03-02T03:51:14;50.57;;;34.70;;
6723;SDS011;3399;52.530;13.304;2024-03-02T03:53:40;48.23;;;35.73;;
6723;SDS011;3399;52.530;13.304;2024-03-02T03:56:05;43.10;;;32.17;;
6723;SDS011;3399;52.530;13.304;2024-03-02T03:58:31;52.17;;;33.70;;
6723;SDS011;3399;52.530;13.304;2024-03-02T04:00:57;48.33;;;34.43;;
6723;SDS011;3399;52.530;13.304;2024-03-02T04:03:22;48.47;;;35.47;;
6723;SDS011;3399;52.530;13.304;2024-03-02T04:05:48;51.27;;;35.43;;
6723;SDS011;3399;52.530;13.304;2024-03-02T04:08:13;45.10;;;34.03;;
6723;SDS011;3399;52.530;13.304;2024-03-02T04:10:39;45.37;;;33.70;;
6723;SDS011;3399;52.530;13.304;2024-03-02T04:13:05;51.33;;;36.47;;
6723;SDS011;3399;52.530;13.304;2024-03-02T04:15:30;49.03;;;34.20;;
6723;SDS011;3399;52.530;13.304;2024-03-02T04:17:56;46.07;;;33.80;;
6723;SDS011;3399;52.530;13.304;2024-03-02T04:20:21;47.03;;;35.00;;
6723;SDS011;3399;52.530;13.304;2024-03-02T04:22:47;48.87;;;33.00;;
6723;SDS011;3399;52.530;13.304;2024-03-02T04:25:12;44.73;;;33.03;;
6723;SDS011;3399;52.530;13.304;2024-03-02T04:27:38;44.30;;;35.13;;
6723;SDS011;3399;52.530;13.304;2024-03-02T04:30:04;47.17;;;33.50;;
6723;SDS011;3399;52.530;13.304;2024-03-02T04:32:30;51.33;;;34.63;;
6723;SDS011;3399;52.530;13.304;2024-03-02T04:34:56;49.60;;;33.90;;
6723;SDS011;3399;52.530;13.304;2024-03-02T04:37:22;45.63;;;32.37;;
6723;SDS011;3399;52.530;13.304;2024-03-02T04:39:47;45.53;;;31.60;;
6723;SDS011;3399;52.530;13.304;2024-03-02T04:42:13;49.07;;;36.47;;
6723;SDS011;3399;52.530;13.304;2024-03-02T04:44:38;45.43;;;33.70;;
6723;SDS011;3399;52.530;13.304;2024-03-02T04:47:04;45.80;;;33.37;;
6723;SDS011;3399;52.530;13.304;2024-03-02T04:49:30;45.00;;;32.23;;
6723;SDS011;3399;52.530;13.304;2024-03-02T04:51:55;41.93;;;32.17;;
6723;SDS011;3399;52.530;13.304;2024-03-02T04:54:21;46.97;;;34.93;;
6723;SDS011;3399;52.530;13.304;2024-03-02T04:56:47;50.67;;;34.47;;
6723;SDS011;3399;52.530;13.304;2024-03-02T04:59:19;47.93;;;33.13;;
6723;SDS011;3399;52.530;13.304;2024-03-02T05:01:45;43.43;;;32.53;;
6723;SDS011;3399;52.530;13.304;2024-03-02T05:04:11;44.77;;;33.73;;
6723;SDS011;3399;52.530;13.304;2024-03-02T05:06:37;42.20;;;31.97;;
6723;SDS011;3399;52.530;13.304;2024-03-02T05:09:04;43.93;;;32.13;;
6723;SDS011;3399;52.530;13.304;2024-03-02T05:11:30;46.57;;;34.20;;
6723;SDS011;3399;52.530;13.304;2024-03-02T05:14:05;43.87;;;33.03;;
6723;SDS011;3399;52.530;13.304;2024-03-02T05:16:34;51.03;;;35.63;;
6723;SDS011;3399;52.530;13.304;2024-03-02T05:19:01;47.90;;;34.70;;
6723;SDS011;3399;52.530;13.304;2024-03-02T05:21:27;44.77;;;32.73;;
6723;SDS011;3399;52.530;13.304;2024-03-02T05:23:52;50.43;;;34.97;;
6723;SDS011;3399;52.530;13.304;2024-03-02T05:26:18;60.63;;;36.83;;
6723;SDS011;3399;52.530;13.304;2024-03-02T05:28:43;47.90;;;36.13;;
6723;SDS011;3399;52.530;13.304;2024-03-02T05:31:12;48.70;;;33.20;;
6723;SDS011;3399;52.530;13.304;2024-03-02T05:33:40;49.73;;;34.93;;
6723;SDS011;3399;52.530;13.304;2024-03-02T05:36:06;46.67;;;35.00;;
6723;SDS011;3399;52.530;13.304;2024-03-02T05:38:32;55.30;;;34.63;;
6723;SDS011;3399;52.530;13.304;2024-03-02T05:40:59;51.87;;;35.37;;
6723;SDS011;3399;52.530;13.304;2024-03-02T05:43:25;48.27;;;35.77;;
6723;SDS011;3399;52.530;13.304;2024-03-02T05:45:51;54.33;;;38.17;;
6723;SDS011;3399;52.530;13.304;2024-03-02T05:48:16;50.80;;;34.80;;
6723;SDS011;3399;52.530;13.304;2024-03-02T05:50:42;53.17;;;36.23;;
6723;SDS011;3399;52.530;13.304;2024-03-02T05:53:07;58.03;;;37.47;;
6723;SDS011;3399;52.530;13.304;2024-03-02T05:55:33;53.53;;;37.20;;
6723;SDS011;3399;52.530;13.304;2024-03-02T05:57:58;53.60;;;36.77;;
6723;SDS011;3399;52.530;13.304;2024-03-02T06:00:42;54.57;;;37.00;;
6723;SDS011;3399;52.530;13.304;2024-03-02T06:03:07;58.10;;;37.50;;
6723;SDS011;3399;52.530;13.304;2024-03-02T06:05:34;48.77;;;37.97;;
6723;SDS011;3399;52.530;13.304;2024-03-02T06:08:00;60.93;;;35.00;;
6723;SDS011;3399;52.530;13.304;2024-03-02T06:10:25;54.73;;;38.57;;
6723;SDS011;3399;52.530;13.304;2024-03-02T06:12:50;56.67;;;38.07;;
6723;SDS011;3399;52.530;13.304;2024-03-02T06:15:16;57.50;;;37.20;;
6723;SDS011;3399;52.530;13.304;2024-03-02T06:17:42;54.90;;;38.73;;
6723;SDS011;3399;52.530;13.304;2024-03-02T06:20:07;53.37;;;36.70;;
6723;SDS011;3399;52.530;13.304;2024-03-02T06:22:33;48.77;;;35.03;;
6723;SDS011;3399;52.530;13.304;2024-03-02T06:24:59;51.87;;;35.20;;
6723;SDS011;3399;52.530;13.304;2024-03-02T06:27:25;52.83;;;36.27;;
6723;SDS011;3399;52.530;13.304;2024-03-02T06:29:50;46.03;;;34.47;;
6723;SDS011;3399;52.530;13.304;2024-03-02T06:32:16;48.10;;;36.53;;
6723;SDS011;3399;52.530;13.304;2024-03-02T06:34:42;49.80;;;35.17;;
6723;SDS011;3399;52.530;13.304;2024-03-02T06:37:07;53.33;;;35.40;;
6723;SDS011;3399;52.530;13.304;2024-03-02T06:39:33;48.70;;;35.83;;
6723;SDS011;3399;52.530;13.304;2024-03-02T06:41:59;51.60;;;35.87;;
6723;SDS011;3399;52.530;13.304;2024-03-02T06:44:25;49.60;;;35.30;;
6723;SDS011;3399;52.530;13.304;2024-03-02T06:46:50;48.40;;;35.07;;
6723;SDS011;3399;52.530;13.304;2024-03-02T06:49:16;56.00;;;36.00;;
6723;SDS011;3399;52.530;13.304;2024-03-02T06:51:42;47.03;;;35.10;;
6723;SDS011;3399;52.530;13.304;2024-03-02T06:54:08;50.80;;;34.17;;
6723;SDS011;3399;52.530;13.304;2024-03-02T06:56:34;50.23;;;36.17;;
6723;SDS011;3399;52.530;13.304;2024-03-02T06:58:59;55.93;;;37.27;;
6723;SDS011;3399;52.530;13.304;2024-03-02T07:01:25;48.90;;;32.53;;
6723;SDS011;3399;52.530;13.304;2024-03-02T07:03:51;50.63;;;35.83;;
6723;SDS011;3399;52.530;13.304;2024-03-02T07:06:16;49.27;;;33.93;;
6723;SDS011;3399;52.530;13.304;2024-03-02T07:08:42;54.23;;;37.33;;
6723;SDS011;3399;52.530;13.304;2024-03-02T07:11:07;57.90;;;37.23;;
6723;SDS011;3399;52.530;13.304;2024-03-02T07:13:33;56.67;;;34.30;;
6723;SDS011;3399;52.530;13.304;2024-03-02T07:15:59;54.67;;;36.60;;
6723;SDS011;3399;52.530;13.304;2024-03-02T07:18:28;55.23;;;34.83;;
6723;SDS011;3399;52.530;13.304;2024-03-02T07:20:55;55.33;;;36.47;;
6723;SDS011;3399;52.530;13.304;2024-03-02T07:23:26;58.13;;;37.00;;
6723;SDS011;3399;52.530;13.304;2024-03-02T07:25:52;57.77;;;36.63;;
6723;SDS011;3399;52.530;13.304;2024-03-02T07:28:24;54.00;;;36.90;;
6723;SDS011;3399;52.530;13.304;2024-03-02T07:30:59;46.93;;;34.00;;
6723;SDS011;3399;52.530;13.304;2024-03-02T07:33:29;48.73;;;32.50;;
6723;SDS011;3399;52.530;13.304;2024-03-02T07:35:57;45.67;;;33.03;;
6723;SDS011;3399;52.530;13.304;2024-03-02T07:38:27;44.80;;;33.17;;
6723;SDS011;3399;52.530;13.304;2024-03-02T07:40:53;50.47;;;34.03;;
6723;SDS011;3399;52.530;13.304;2024-03-02T07:43:19;51.87;;;33.77;;
6723;SDS011;3399;52.530;13.304;2024-03-02T07:45:45;53.20;;;33.10;;
6723;SDS011;3399;52.530;13.304;2024-03-02T07:48:11;53.00;;;33.90;;
6723;SDS011;3399;52.530;13.304;2024-03-02T07:50:37;55.83;;;38.63;;
6723;SDS011;3399;52.530;13.304;2024-03-02T07:53:04;50.50;;;35.30;;
6723;SDS011;3399;52.530;13.304;2024-03-02T07:55:30;53.83;;;37.37;;
6723;SDS011;3399;52.530;13.304;2024-03-02T07:57:56;54.67;;;36.13;;
6723;SDS011;3399;52.530;13.304;2024-03-02T08:00:22;54.10;;;36.03;;
6723;SDS011;3399;52.530;13.304;2024-03-02T08:02:48;54.90;;;39.47;;
6723;SDS011;3399;52.530;13.304;2024-03-02T08:05:15;56.20;;;38.33;;
6723;SDS011;3399;52.530;13.304;2024-03-02T08:07:43;52.53;;;35.87;;
6723;SDS011;3399;52.530;13.304;2024-03-02T08:10:09;53.77;;;33.37;;
6723;SDS011;3399;52.530;13.304;2024-03-02T08:12:35;53.37;;;35.60;;
6723;SDS011;3399;52.530;13.304;2024-03-02T08:15:01;55.17;;;37.17;;
6723;SDS011;3399;52.530;13.304;2024-03-02T08:17:26;58.57;;;35.47;;
6723;SDS011;3399;52.530;13.304;2024-03-02T08:19:52;52.37;;;36.23;;
6723;SDS011;3399;52.530;13.304;2024-03-02T08:22:18;54.80;;;36.87;;
6723;SDS011;3399;52.530;13.304;2024-03-02T08:24:44;53.37;;;35.97;;
6723;SDS011;3399;52.530;13.304;2024-03-02T08:27:10;57.10;;;36.43;;
6723;SDS011;3399;52.530;13.304;2024-03-02T08:29:35;51.80;;;36.50;;
6723;SDS011;3399;52.530;13.304;2024-03-02T08:32:01;53.60;;;36.50;;
6723;SDS011;3399;52.530;13.304;2024-03-02T08:34:27;48.97;;;34.80;;
6723;SDS011;3399;52.530;13.304;2024-03-02T08:36:53;53.20;;;34.70;;
6723;SDS011;3399;52.530;13.304;2024-03-02T08:39:18;53.13;;;36.80;;
6723;SDS011;3399;52.530;13.304;2024-03-02T08:41:44;57.27;;;36.77;;
6723;SDS011;3399;52.530;13.304;2024-03-02T08:44:11;50.60;;;35.03;;
6723;SDS011;3399;52.530;13.304;2024-03-02T08:46:38;55.10;;;34.97;;
6723;SDS011;3399;52.530;13.304;2024-03-02T08:49:04;51.87;;;33.57;;
6723;SDS011;3399;52.530;13.304;2024-03-02T08:51:30;55.97;;;34.23;;
6723;SDS011;3399;52.530;13.304;2024-03-02T08:53:56;50.17;;;34.47;;
6723;SDS011;3399;52.530;13.304;2024-03-02T08:56:22;51.33;;;32.63;;
6723;SDS011;3399;52.530;13.304;2024-03-02T08:58:48;55.37;;;34.63;;
6723;SDS011;3399;52.530;13.304;2024-03-02T09:01:15;47.67;;;32.77;;
6723;SDS011;3399;52.530;13.304;2024-03-02T09:03:41;51.23;;;34.97;;
6723;SDS011;3399;52.530;13.304;2024-03-02T09:06:09;51.57;;;34.13;;
6723;SDS011;3399;52.530;13.304;2024-03-02T09:08:35;52.97;;;34.17;;
6723;SDS011;3399;52.530;13.304;2024-03-02T09:11:01;54.40;;;35.10;;
6723;SDS011;3399;52.530;13.304;2024-03-02T09:13:31;53.70;;;34.50;;
6723;SDS011;3399;52.530;13.304;2024-03-02T09:15:57;55.27;;;35.03;;
6723;SDS011;3399;52.530;13.304;2024-03-02T09:18:23;49.83;;;33.53;;
6723;SDS011;3399;52.530;13.304;2024-03-02T09:20:49;41.70;;;31.97;;
6723;SDS011;3399;52.530;13.304;2024-03-02T09:23:14;49.03;;;32.10;;
6723;SDS011;3399;52.530;13.304;2024-03-02T09:25:40;45.70;;;34.03;;
6723;SDS011;3399;52.530;13.304;2024-03-02T09:28:05;54.30;;;34.27;;
6723;SDS011;3399;52.530;13.304;2024-03-02T09:30:32;45.63;;;32.17;;
6723;SDS011;3399;52.530;13.304;2024-03-02T09:32:57;46.93;;;31.70;;
6723;SDS011;3399;52.530;13.304;2024-03-02T09:35:23;50.27;;;33.33;;
6723;SDS011;3399;52.530;13.304;2024-03-02T09:37:48;44.60;;;31.93;;
6723;SDS011;3399;52.530;13.304;2024-03-02T09:40:14;44.73;;;33.00;;
6723;SDS011;3399;52.530;13.304;2024-03-02T09:42:40;47.50;;;31.20;;
6723;SDS011;3399;52.530;13.304;2024-03-02T09:45:06;43.87;;;31.60;;
6723;SDS011;3399;52.530;13.304;2024-03-02T09:47:32;49.00;;;32.93;;
6723;SDS011;3399;52.530;13.304;2024-03-02T09:49:57;48.63;;;33.73;;
6723;SDS011;3399;52.530;13.304;2024-03-02T09:52:23;50.47;;;32.17;;
6723;SDS011;3399;52.530;13.304;2024-03-02T09:54:49;43.77;;;31.77;;
6723;SDS011;3399;52.530;13.304;2024-03-02T09:57:14;46.43;;;32.33;;
6723;SDS011;3399;52.530;13.304;2024-03-02T09:59:40;46.57;;;30.37;;
6723;SDS011;3399;52.530;13.304;2024-03-02T10:02:07;48.10;;;31.77;;
6723;SDS011;3399;52.530;13.304;2024-03-02T10:04:32;43.30;;;29.27;;
6723;SDS011;3399;52.530;13.304;2024-03-02T10:09:42;40.47;;;27.90;;
6723;SDS011;3399;52.530;13.304;2024-03-02T10:12:10;42.70;;;28.60;;
6723;SDS011;3399;52.530;13.304;2024-03-02T10:14:36;42.47;;;28.97;;
6723;SDS011;3399;52.530;13.304;2024-03-02T10:17:03;35.43;;;25.67;;
6723;SDS011;3399;52.530;13.304;2024-03-02T10:19:30;37.23;;;26.43;;
6723;SDS011;3399;52.530;13.304;2024-03-02T10:21:59;38.87;;;25.57;;
6723;SDS011;3399;52.530;13.304;2024-03-02T10:24:34;37.77;;;27.00;;
6723;SDS011;3399;52.530;13.304;2024-03-02T10:27:11;40.03;;;25.27;;
6723;SDS011;3399;52.530;13.304;2024-03-02T10:29:48;36.83;;;26.60;;
6723;SDS011;3399;52.530;13.304;2024-03-02T10:32:15;35.63;;;23.87;;
6723;SDS011;3399;52.530;13.304;2024-03-02T10:34:43;36.60;;;25.60;;
6723;SDS011;3399;52.530;13.304;2024-03-02T10:37:10;36.87;;;27.83;;
6723;SDS011;3399;52.530;13.304;2024-03-02T10:39:37;33.40;;;26.40;;
6723;SDS011;3399;52.530;13.304;2024-03-02T10:42:07;33.57;;;24.63;;
6723;SDS011;3399;52.530;13.304;2024-03-02T10:44:33;34.80;;;24.20;;
6723;SDS011;3399;52.530;13.304;2024-03-02T10:47:00;30.53;;;22.73;;
6723;SDS011;3399;52.530;13.304;2024-03-02T10:49:28;30.13;;;22.47;;
6723;SDS011;3399;52.530;13.304;2024-03-02T10:51:54;27.70;;;19.67;;
6723;SDS011;3399;52.530;13.304;2024-03-02T10:54:20;28.17;;;20.43;;
6723;SDS011;3399;52.530;13.304;2024-03-02T10:56:51;27.47;;;20.67;;
6723;SDS011;3399;52.530;13.304;2024-03-02T10:59:35;33.37;;;20.83;;
6723;SDS011;3399;52.530;13.304;2024-03-02T11:02:03;29.07;;;21.27;;
6723;SDS011;3399;52.530;13.304;2024-03-02T11:04:32;27.50;;;20.60;;
6723;SDS011;3399;52.530;13.304;2024-03-02T11:07:04;31.33;;;21.33;;
6723;SDS011;3399;52.530;13.304;2024-03-02T11:09:33;26.07;;;20.10;;
6723;SDS011;3399;52.530;13.304;2024-03-02T11:12:03;28.60;;;20.03;;
6723;SDS011;3399;52.530;13.304;2024-03-02T11:14:37;24.53;;;19.13;;
6723;SDS011;3399;52.530;13.304;2024-03-02T11:17:08;27.70;;;18.33;;
6723;SDS011;3399;52.530;13.304;2024-03-02T11:19:34;25.13;;;17.87;;
6723;SDS011;3399;52.530;13.304;2024-03-02T11:22:02;25.47;;;19.43;;
6723;SDS011;3399;52.530;13.304;2024-03-02T11:24:29;28.33;;;18.63;;
6723;SDS011;3399;52.530;13.304;2024-03-02T11:26:58;26.47;;;19.40;;
6723;SDS011;3399;52.530;13.304;2024-03-02T11:32:04;26.97;;;18.60;;
6723;SDS011;3399;52.530;13.304;2024-03-02T11:34:31;22.20;;;17.27;;
6723;SDS011;3399;52.530;13.304;2024-03-02T11:36:58;24.60;;;18.17;;
6723;SDS011;3399;52.530;13.304;2024-03-02T11:39:26;24.93;;;16.87;;
6723;SDS011;3399;52.530;13.304;2024-03-02T11:41:52;22.57;;;17.03;;
6723;SDS011;3399;52.530;13.304;2024-03-02T11:44:17;21.17;;;16.77;;
6723;SDS011;3399;52.530;13.304;2024-03-02T11:49:44;21.47;;;17.60;;
6723;SDS011;3399;52.530;13.304;2024-03-02T11:52:14;24.70;;;16.83;;
6723;SDS011;3399;52.530;13.304;2024-03-02T11:54:42;26.70;;;17.33;;
6723;SDS011;3399;52.530;13.304;2024-03-02T11:57:13;27.00;;;18.40;;
6723;SDS011;3399;52.530;13.304;2024-03-02T11:59:47;23.50;;;17.43;;
6723;SDS011;3399;52.530;13.304;2024-03-02T12:02:21;25.73;;;17.77;;
6723;SDS011;3399;52.530;13.304;2024-03-02T12:04:47;24.20;;;17.57;;
6723;SDS011;3399;52.530;13.304;2024-03-02T12:07:20;22.60;;;17.43;;
6723;SDS011;3399;52.530;13.304;2024-03-02T12:09:47;25.90;;;17.07;;
6723;SDS011;3399;52.530;13.304;2024-03-02T12:12:14;26.13;;;18.13;;
6723;SDS011;3399;52.530;13.304;2024-03-02T12:14:52;27.50;;;18.57;;
6723;SDS011;3399;52.530;13.304;2024-03-02T12:17:20;26.53;;;18.60;;
6723;SDS011;3399;52.530;13.304;2024-03-02T12:19:46;26.53;;;20.07;;
6723;SDS011;3399;52.530;13.304;2024-03-02T12:22:12;24.13;;;18.73;;
6723;SDS011;3399;52.530;13.304;2024-03-02T12:24:37;25.60;;;19.67;;
6723;SDS011;3399;52.530;13.304;2024-03-02T12:27:04;28.47;;;19.73;;
6723;SDS011;3399;52.530;13.304;2024-03-02T12:29:30;28.60;;;20.53;;
6723;SDS011;3399;52.530;13.304;2024-03-02T12:31:56;23.57;;;20.03;;
6723;SDS011;3399;52.530;13.304;2024-03-02T12:34:22;25.80;;;17.70;;
6723;SDS011;3399;52.530;13.304;2024-03-02T12:36:50;25.07;;;19.73;;
6723;SDS011;3399;52.530;13.304;2024-03-02T12:39:18;26.07;;;19.73;;
6723;SDS011;3399;52.530;13.304;2024-03-02T12:41:45;25.53;;;19.77;;
6723;SDS011;3399;52.530;13.304;2024-03-02T12:44:11;25.83;;;19.07;;
6723;SDS011;3399;52.530;13.304;2024-03-02T12:46:37;22.97;;;19.53;;
6723;SDS011;3399;52.530;13.304;2024-03-02T12:49:13;25.83;;;18.70;;
6723;SDS011;3399;52.530;13.304;2024-03-02T12:51:43;24.23;;;19.23;;
6723;SDS011;3399;52.530;13.304;2024-03-02T12:54:10;21.10;;;18.67;;
6723;SDS011;3399;52.530;13.304;2024-03-02T12:56:36;24.17;;;19.30;;
6723;SDS011;3399;52.530;13.304;2024-03-02T12:59:03;22.10;;;18.03;;
6723;SDS011;3399;52.530;13.304;2024-03-02T13:01:29;23.43;;;18.87;;
6723;SDS011;3399;52.530;13.304;2024-03-02T13:03:54;28.07;;;20.30;;
6723;SDS011;3399;52.530;13.304;2024-03-02T13:06:21;24.17;;;19.13;;
6723;SDS011;3399;52.530;13.304;2024-03-02T13:08:46;24.73;;;18.73;;
6723;SDS011;3399;52.530;13.304;2024-03-02T13:11:12;29.57;;;19.07;;
6723;SDS011;3399;52.530;13.304;2024-03-02T13:13:41;25.70;;;20.57;;
6723;SDS011;3399;52.530;13.304;2024-03-02T13:16:08;26.27;;;20.47;;
6723;SDS011;3399;52.530;13.304;2024-03-02T13:18:35;25.63;;;18.70;;
6723;SDS011;3399;52.530;13.304;2024-03-02T13:21:00;24.07;;;19.17;;
6723;SDS011;3399;52.530;13.304;2024-03-02T13:23:26;21.67;;;17.83;;
6723;SDS011;3399;52.530;13.304;2024-03-02T13:25:52;21.33;;;17.40;;
6723;SDS011;3399;52.530;13.304;2024-03-02T13:28:18;23.80;;;19.83;;
6723;SDS011;3399;52.530;13.304;2024-03-02T13:30:43;25.37;;;18.93;;
6723;SDS011;3399;52.530;13.304;2024-03-02T13:33:08;24.40;;;18.57;;
6723;SDS011;3399;52.530;13.304;2024-03-02T13:35:34;27.13;;;18.17;;
6723;SDS011;3399;52.530;13.304;2024-03-02T13:37:59;26.33;;;19.60;;
6723;SDS011;3399;52.530;13.304;2024-03-02T13:40:25;21.37;;;17.77;;
6723;SDS011;3399;52.530;13.304;2024-03-02T13:42:50;21.90;;;16.73;;
6723;SDS011;3399;52.530;13.304;2024-03-02T13:45:18;21.77;;;17.83;;
6723;SDS011;3399;52.530;13.304;2024-03-02T13:47:44;21.47;;;17.27;;
6723;SDS011;3399;52.530;13.304;2024-03-02T13:50:09;23.20;;;16.67;;
6723;SDS011;3399;52.530;13.304;2024-03-02T13:52:35;25.50;;;17.47;;
6723;SDS011;3399;52.530;13.304;2024-03-02T13:55:01;20.97;;;16.37;;
6723;SDS011;3399;52.530;13.304;2024-03-02T13:57:27;22.10;;;16.90;;
6723;SDS011;3399;52.530;13.304;2024-03-02T13:59:53;20.43;;;15.67;;
6723;SDS011;3399;52.530;13.304;2024-03-02T14:02:19;22.40;;;15.40;;
6723;SDS011;3399;52.530;13.304;2024-03-02T14:04:45;23.13;;;16.77;;
6723;SDS011;3399;52.530;13.304;2024-03-02T14:07:13;23.03;;;16.80;;
6723;SDS011;3399;52.530;13.304;2024-03-02T14:09:38;21.33;;;16.17;;
6723;SDS011;3399;52.530;13.304;2024-03-02T14:12:04;21.93;;;17.33;;
6723;SDS011;3399;52.530;13.304;2024-03-02T14:14:30;24.27;;;16.83;;
6723;SDS011;3399;52.530;13.304;2024-03-02T14:16:56;24.70;;;17.03;;
6723;SDS011;3399;52.530;13.304;2024-03-02T14:19:25;22.20;;;15.50;;
6723;SDS011;3399;52.530;13.304;2024-03-02T14:21:51;18.97;;;15.73;;
6723;SDS011;3399;52.530;13.304;2024-03-02T14:24:16;17.57;;;14.40;;
6723;SDS011;3399;52.530;13.304;2024-03-02T14:26:42;21.13;;;14.73;;
6723;SDS011;3399;52.530;13.304;2024-03-02T14:29:07;19.90;;;13.50;;
6723;SDS011;3399;52.530;13.304;2024-03-02T14:31:33;22.63;;;15.53;;
6723;SDS011;3399;52.530;13.304;2024-03-02T14:33:59;17.43;;;13.43;;
6723;SDS011;3399;52.530;13.304;2024-03-02T14:36:25;17.17;;;13.23;;
6723;SDS011;3399;52.530;13.304;2024-03-02T14:38:52;21.07;;;13.87;;
6723;SDS011;3399;52.530;13.304;2024-03-02T14:41:18;17.90;;;12.67;;
6723;SDS011;3399;52.530;13.304;2024-03-02T14:43:43;16.60;;;13.60;;